sensor_id;sensor_type;location;lat;lon;timestamp;P1;durP1;ratioP1;P2;durP2;ratioP2
2750;SDS011;1383;48.362;10.908;2022-08-19T00:01:32;4.20;;;3.80;;
2750;SDS011;1383;48.362;10.908;2022-08-19T00:04:03;3.87;;;3.57;;
2750;SDS011;1383;48.362;10.908;2022-08-19T00:06:34;5.07;;;3.67;;
2750;SDS011;1383;48.362;10.908;2022-08-19T00:09:03;4.70;;;4.30;;
2750;SDS011;1383;48.362;10.908;2022-08-19T00:11:31;4.43;;;3.80;;
2750;SDS011;1383;48.362;10.908;2022-08-19T00:13:59;4.47;;;3.33;;
2750;SDS011;1383;48.362;10.908;2022-08-19T00:16:26;3.47;;;3.17;;
2750;SDS011;1383;48.362;10.908;2022-08-19T00:18:53;3.83;;;3.53;;
2750;SDS011;1383;48.362;10.908;2022-08-19T00:21:22;3.70;;;3.40;;
2750;SDS011;1383;48.362;10.908;2022-08-19T00:23:50;4.00;;;3.70;;
2750;SDS011;1383;48.362;10.908;2022-08-19T00:26:17;3.10;;;2.90;;
2750;SDS011;1383;48.362;10.908;2022-08-19T00:28:44;3.40;;;3.13;;
2750;SDS011;1383;48.362;10.908;2022-08-19T00:31:10;3.27;;;2.97;;
2750;SDS011;1383;48.362;10.908;2022-08-19T00:33:37;3.30;;;3.00;;
2750;SDS011;1383;48.362;10.908;2022-08-19T00:36:05;2.80;;;2.60;;
2750;SDS011;1383;48.362;10.908;2022-08-19T00:38:33;2.77;;;2.57;;
2750;SDS011;1383;48.362;10.908;2022-08-19T00:41:04;2.93;;;2.73;;
2750;SDS011;1383;48.362;10.908;2022-08-19T00:43:31;2.63;;;2.33;;
2750;SDS011;1383;48.362;10.908;2022-08-19T00:45:58;3.07;;;2.87;;
2750;SDS011;1383;48.362;10.908;2022-08-19T00:48:25;4.30;;;2.50;;
2750;SDS011;1383;48.362;10.908;2022-08-19T00:50:52;2.60;;;2.40;;
2750;SDS011;1383;48.362;10.908;2022-08-19T00:53:22;2.00;;;1.80;;
2750;SDS011;1383;48.362;10.908;2022-08-19T00:55:52;3.10;;;2.47;;
2750;SDS011;1383;48.362;10.908;2022-08-19T00:58:27;3.80;;;2.30;;
2750;SDS011;1383;48.362;10.908;2022-08-19T01:00:58;3.17;;;2.87;;
2750;SDS011;1383;48.362;10.908;2022-08-19T01:03:27;2.80;;;2.50;;
2750;SDS011;1383;48.362;10.908;2022-08-19T01:06:14;3.90;;;2.60;;
2750;SDS011;1383;48.362;10.908;2022-08-19T01:08:45;2.27;;;2.07;;
2750;SDS011;1383;48.362;10.908;2022-08-19T01:11:15;4.03;;;2.43;;
2750;SDS011;1383;48.362;10.908;2022-08-19T01:13:42;3.03;;;2.33;;
2750;SDS011;1383;48.362;10.908;2022-08-19T01:16:15;2.60;;;2.40;;
2750;SDS011;1383;48.362;10.908;2022-08-19T01:18:44;2.93;;;2.60;;
2750;SDS011;1383;48.362;10.908;2022-08-19T01:21:22;2.80;;;2.33;;
2750;SDS011;1383;48.362;10.908;2022-08-19T01:23:58;2.73;;;2.53;;
2750;SDS011;1383;48.362;10.908;2022-08-19T01:26:26;2.73;;;2.53;;
2750;SDS011;1383;48.362;10.908;2022-08-19T01:28:57;3.40;;;2.33;;
2750;SDS011;1383;48.362;10.908;2022-08-19T01:31:27;2.93;;;2.67;;
2750;SDS011;1383;48.362;10.908;2022-08-19T01:33:59;3.50;;;3.20;;
2750;SDS011;1383;48.362;10.908;2022-08-19T01:38:59;4.40;;;4.00;;
2750;SDS011;1383;48.362;10.908;2022-08-19T01:41:27;5.37;;;4.73;;
2750;SDS011;1383;48.362;10.908;2022-08-19T01:43:54;4.80;;;4.40;;
2750;SDS011;1383;48.362;10.908;2022-08-19T01:46:42;5.10;;;4.60;;
2750;SDS011;1383;48.362;10.908;2022-08-19T01:49:10;5.20;;;4.80;;
2750;SDS011;1383;48.362;10.908;2022-08-19T01:51:37;5.40;;;5.00;;
2750;SDS011;1383;48.362;10.908;2022-08-19T01:54:10;5.57;;;5.07;;
2750;SDS011;1383;48.362;10.908;2022-08-19T01:56:49;6.27;;;5.67;;
2750;SDS011;1383;48.362;10.908;2022-08-19T01:59:21;6.50;;;5.90;;
2750;SDS011;1383;48.362;10.908;2022-08-19T02:01:49;5.60;;;5.10;;
2750;SDS011;1383;48.362;10.908;2022-08-19T02:04:16;7.37;;;6.67;;
2750;SDS011;1383;48.362;10.908;2022-08-19T02:06:43;7.70;;;7.00;;
2750;SDS011;1383;48.362;10.908;2022-08-19T02:09:10;7.90;;;6.97;;
2750;SDS011;1383;48.362;10.908;2022-08-19T02:11:37;9.77;;;7.63;;
2750;SDS011;1383;48.362;10.908;2022-08-19T02:14:05;7.77;;;7.00;;
2750;SDS011;1383;48.362;10.908;2022-08-19T02:16:33;9.27;;;8.47;;
2750;SDS011;1383;48.362;10.908;2022-08-19T02:19:01;10.37;;;9.37;;
2750;SDS011;1383;48.362;10.908;2022-08-19T02:21:28;9.00;;;8.10;;
2750;SDS011;1383;48.362;10.908;2022-08-19T02:23:56;9.43;;;8.53;;
2750;SDS011;1383;48.362;10.908;2022-08-19T02:26:23;10.13;;;9.13;;
2750;SDS011;1383;48.362;10.908;2022-08-19T02:28:53;12.60;;;8.80;;
2750;SDS011;1383;48.362;10.908;2022-08-19T02:31:21;8.53;;;7.73;;
2750;SDS011;1383;48.362;10.908;2022-08-19T02:33:50;12.50;;;8.30;;
2750;SDS011;1383;48.362;10.908;2022-08-19T02:36:22;9.50;;;8.57;;
2750;SDS011;1383;48.362;10.908;2022-08-19T02:38:50;12.47;;;9.70;;
2750;SDS011;1383;48.362;10.908;2022-08-19T02:41:30;10.07;;;9.20;;
2750;SDS011;1383;48.362;10.908;2022-08-19T02:44:00;10.73;;;9.67;;
2750;SDS011;1383;48.362;10.908;2022-08-19T02:46:47;11.23;;;10.10;;
2750;SDS011;1383;48.362;10.908;2022-08-19T02:49:17;11.40;;;10.40;;
2750;SDS011;1383;48.362;10.908;2022-08-19T02:51:45;11.13;;;10.00;;
2750;SDS011;1383;48.362;10.908;2022-08-19T02:54:13;11.17;;;9.93;;
2750;SDS011;1383;48.362;10.908;2022-08-19T02:56:41;12.00;;;10.90;;
2750;SDS011;1383;48.362;10.908;2022-08-19T02:59:09;12.73;;;11.50;;
2750;SDS011;1383;48.362;10.908;2022-08-19T03:01:38;13.87;;;11.80;;
2750;SDS011;1383;48.362;10.908;2022-08-19T03:04:07;13.30;;;12.00;;
2750;SDS011;1383;48.362;10.908;2022-08-19T03:06:36;15.23;;;12.83;;
2750;SDS011;1383;48.362;10.908;2022-08-19T03:09:04;15.13;;;13.77;;
2750;SDS011;1383;48.362;10.908;2022-08-19T03:11:31;15.90;;;14.43;;
2750;SDS011;1383;48.362;10.908;2022-08-19T03:13:59;15.53;;;14.07;;
2750;SDS011;1383;48.362;10.908;2022-08-19T03:16:30;17.60;;;16.00;;
2750;SDS011;1383;48.362;10.908;2022-08-19T03:18:59;17.33;;;15.40;;
2750;SDS011;1383;48.362;10.908;2022-08-19T03:21:27;17.93;;;16.23;;
2750;SDS011;1383;48.362;10.908;2022-08-19T03:23:58;17.43;;;15.73;;
2750;SDS011;1383;48.362;10.908;2022-08-19T03:26:27;18.03;;;16.17;;
2750;SDS011;1383;48.362;10.908;2022-08-19T03:28:55;17.83;;;16.03;;
2750;SDS011;1383;48.362;10.908;2022-08-19T03:31:24;20.10;;;18.00;;
2750;SDS011;1383;48.362;10.908;2022-08-19T03:34:16;19.63;;;17.60;;
2750;SDS011;1383;48.362;10.908;2022-08-19T03:36:54;20.10;;;18.10;;
2750;SDS011;1383;48.362;10.908;2022-08-19T03:39:23;19.63;;;17.63;;
2750;SDS011;1383;48.362;10.908;2022-08-19T03:41:52;21.37;;;19.20;;
2750;SDS011;1383;48.362;10.908;2022-08-19T03:44:43;22.77;;;20.37;;
2750;SDS011;1383;48.362;10.908;2022-08-19T03:47:11;22.13;;;19.97;;
2750;SDS011;1383;48.362;10.908;2022-08-19T03:49:42;22.27;;;20.13;;
2750;SDS011;1383;48.362;10.908;2022-08-19T03:52:10;21.70;;;19.60;;
2750;SDS011;1383;48.362;10.908;2022-08-19T03:54:37;21.77;;;19.67;;
2750;SDS011;1383;48.362;10.908;2022-08-19T03:57:04;23.07;;;20.60;;
2750;SDS011;1383;48.362;10.908;2022-08-19T03:59:33;25.53;;;21.43;;
2750;SDS011;1383;48.362;10.908;2022-08-19T04:02:02;23.40;;;21.00;;
2750;SDS011;1383;48.362;10.908;2022-08-19T04:04:34;23.93;;;21.53;;
2750;SDS011;1383;48.362;10.908;2022-08-19T04:07:03;26.43;;;23.83;;
2750;SDS011;1383;48.362;10.908;2022-08-19T04:09:30;26.30;;;23.47;;
2750;SDS011;1383;48.362;10.908;2022-08-19T04:11:57;24.23;;;21.77;;
2750;SDS011;1383;48.362;10.908;2022-08-19T04:14:25;25.80;;;23.10;;
2750;SDS011;1383;48.362;10.908;2022-08-19T04:16:56;24.73;;;22.23;;
2750;SDS011;1383;48.362;10.908;2022-08-19T04:19:23;27.57;;;24.70;;
2750;SDS011;1383;48.362;10.908;2022-08-19T04:21:51;26.40;;;23.67;;
2750;SDS011;1383;48.362;10.908;2022-08-19T04:24:20;28.07;;;24.03;;
2750;SDS011;1383;48.362;10.908;2022-08-19T04:26:48;26.73;;;23.83;;
2750;SDS011;1383;48.362;10.908;2022-08-19T04:29:19;25.27;;;22.67;;
2750;SDS011;1383;48.362;10.908;2022-08-19T04:31:51;26.00;;;22.93;;
2750;SDS011;1383;48.362;10.908;2022-08-19T04:34:20;26.53;;;23.63;;
2750;SDS011;1383;48.362;10.908;2022-08-19T04:36:49;25.53;;;23.03;;
2750;SDS011;1383;48.362;10.908;2022-08-19T04:39:28;26.67;;;23.80;;
2750;SDS011;1383;48.362;10.908;2022-08-19T04:42:16;23.90;;;21.50;;
2750;SDS011;1383;48.362;10.908;2022-08-19T04:45:03;24.83;;;22.00;;
2750;SDS011;1383;48.362;10.908;2022-08-19T04:47:34;25.00;;;22.00;;
2750;SDS011;1383;48.362;10.908;2022-08-19T04:50:13;27.60;;;22.90;;
2750;SDS011;1383;48.362;10.908;2022-08-19T04:52:41;25.13;;;21.87;;
2750;SDS011;1383;48.362;10.908;2022-08-19T04:55:11;26.43;;;22.07;;
2750;SDS011;1383;48.362;10.908;2022-08-19T04:57:38;25.97;;;23.20;;
2750;SDS011;1383;48.362;10.908;2022-08-19T05:00:07;25.00;;;22.40;;
2750;SDS011;1383;48.362;10.908;2022-08-19T05:02:34;24.80;;;21.60;;
2750;SDS011;1383;48.362;10.908;2022-08-19T05:05:02;25.97;;;23.37;;
2750;SDS011;1383;48.362;10.908;2022-08-19T05:07:29;24.73;;;22.13;;
2750;SDS011;1383;48.362;10.908;2022-08-19T05:09:56;24.23;;;21.63;;
2750;SDS011;1383;48.362;10.908;2022-08-19T05:12:24;24.97;;;22.07;;
2750;SDS011;1383;48.362;10.908;2022-08-19T05:14:54;22.90;;;20.50;;
2750;SDS011;1383;48.362;10.908;2022-08-19T05:17:23;23.40;;;21.00;;
2750;SDS011;1383;48.362;10.908;2022-08-19T05:19:54;26.37;;;22.80;;
2750;SDS011;1383;48.362;10.908;2022-08-19T05:22:41;23.90;;;21.40;;
2750;SDS011;1383;48.362;10.908;2022-08-19T05:25:10;23.40;;;20.90;;
2750;SDS011;1383;48.362;10.908;2022-08-19T05:27:40;25.00;;;22.40;;
2750;SDS011;1383;48.362;10.908;2022-08-19T05:30:08;25.40;;;21.90;;
2750;SDS011;1383;48.362;10.908;2022-08-19T05:32:37;22.67;;;20.40;;
2750;SDS011;1383;48.362;10.908;2022-08-19T05:35:05;21.93;;;19.43;;
2750;SDS011;1383;48.362;10.908;2022-08-19T05:37:32;24.73;;;21.80;;
2750;SDS011;1383;48.362;10.908;2022-08-19T05:39:59;23.90;;;21.40;;
2750;SDS011;1383;48.362;10.908;2022-08-19T05:42:26;25.20;;;22.67;;
2750;SDS011;1383;48.362;10.908;2022-08-19T05:44:53;23.53;;;20.93;;
2750;SDS011;1383;48.362;10.908;2022-08-19T05:47:20;23.63;;;21.10;;
2750;SDS011;1383;48.362;10.908;2022-08-19T05:49:47;23.17;;;20.67;;
2750;SDS011;1383;48.362;10.908;2022-08-19T05:52:16;19.87;;;17.77;;
2750;SDS011;1383;48.362;10.908;2022-08-19T05:54:44;22.53;;;20.37;;
2750;SDS011;1383;48.362;10.908;2022-08-19T05:57:16;26.37;;;23.53;;
2750;SDS011;1383;48.362;10.908;2022-08-19T05:59:44;24.60;;;21.30;;
2750;SDS011;1383;48.362;10.908;2022-08-19T06:02:11;24.37;;;21.77;;
2750;SDS011;1383;48.362;10.908;2022-08-19T06:04:39;28.37;;;22.50;;
2750;SDS011;1383;48.362;10.908;2022-08-19T06:07:09;23.63;;;21.23;;
2750;SDS011;1383;48.362;10.908;2022-08-19T06:09:37;27.17;;;24.27;;
2750;SDS011;1383;48.362;10.908;2022-08-19T06:12:04;30.73;;;24.30;;
2750;SDS011;1383;48.362;10.908;2022-08-19T06:14:32;26.40;;;23.00;;
2750;SDS011;1383;48.362;10.908;2022-08-19T06:17:05;26.43;;;23.70;;
2750;SDS011;1383;48.362;10.908;2022-08-19T06:19:32;24.63;;;22.20;;
2750;SDS011;1383;48.362;10.908;2022-08-19T06:22:06;47.53;;;41.83;;
2750;SDS011;1383;48.362;10.908;2022-08-19T06:24:33;46.53;;;41.67;;
2750;SDS011;1383;48.362;10.908;2022-08-19T06:27:01;34.80;;;26.20;;
2750;SDS011;1383;48.362;10.908;2022-08-19T06:29:31;30.07;;;24.00;;
2750;SDS011;1383;48.362;10.908;2022-08-19T06:31:59;30.43;;;26.17;;
2750;SDS011;1383;48.362;10.908;2022-08-19T06:34:29;29.23;;;25.90;;
2750;SDS011;1383;48.362;10.908;2022-08-19T06:36:58;30.60;;;26.50;;
2750;SDS011;1383;48.362;10.908;2022-08-19T06:39:30;31.90;;;25.70;;
2750;SDS011;1383;48.362;10.908;2022-08-19T06:42:00;28.37;;;25.13;;
2750;SDS011;1383;48.362;10.908;2022-08-19T06:44:30;31.90;;;25.97;;
2750;SDS011;1383;48.362;10.908;2022-08-19T06:47:08;31.10;;;26.73;;
2750;SDS011;1383;48.362;10.908;2022-08-19T06:49:40;33.30;;;27.33;;
2750;SDS011;1383;48.362;10.908;2022-08-19T06:52:07;32.20;;;28.60;;
2750;SDS011;1383;48.362;10.908;2022-08-19T06:54:39;28.37;;;25.30;;
2750;SDS011;1383;48.362;10.908;2022-08-19T06:57:22;29.80;;;25.73;;
2750;SDS011;1383;48.362;10.908;2022-08-19T06:59:50;32.40;;;28.53;;
2750;SDS011;1383;48.362;10.908;2022-08-19T07:02:17;30.90;;;27.70;;
2750;SDS011;1383;48.362;10.908;2022-08-19T07:04:45;33.27;;;28.37;;
2750;SDS011;1383;48.362;10.908;2022-08-19T07:07:12;30.97;;;26.80;;
2750;SDS011;1383;48.362;10.908;2022-08-19T07:09:46;32.83;;;28.70;;
2750;SDS011;1383;48.362;10.908;2022-08-19T07:12:27;33.57;;;28.83;;
2750;SDS011;1383;48.362;10.908;2022-08-19T07:14:57;34.83;;;28.73;;
2750;SDS011;1383;48.362;10.908;2022-08-19T07:17:24;35.20;;;29.47;;
2750;SDS011;1383;48.362;10.908;2022-08-19T07:19:52;33.10;;;29.60;;
2750;SDS011;1383;48.362;10.908;2022-08-19T07:22:20;38.70;;;31.23;;
2750;SDS011;1383;48.362;10.908;2022-08-19T07:24:49;35.00;;;29.63;;
2750;SDS011;1383;48.362;10.908;2022-08-19T07:27:17;36.40;;;30.00;;
2750;SDS011;1383;48.362;10.908;2022-08-19T07:29:51;37.87;;;33.60;;
2750;SDS011;1383;48.362;10.908;2022-08-19T07:32:24;33.23;;;28.17;;
2750;SDS011;1383;48.362;10.908;2022-08-19T07:34:53;40.07;;;34.43;;
2750;SDS011;1383;48.362;10.908;2022-08-19T07:37:22;38.13;;;30.40;;
2750;SDS011;1383;48.362;10.908;2022-08-19T07:39:53;36.10;;;31.17;;
2750;SDS011;1383;48.362;10.908;2022-08-19T07:42:20;34.43;;;29.10;;
2750;SDS011;1383;48.362;10.908;2022-08-19T07:44:47;36.50;;;30.67;;
2750;SDS011;1383;48.362;10.908;2022-08-19T07:47:16;37.40;;;30.40;;
2750;SDS011;1383;48.362;10.908;2022-08-19T07:50:05;37.90;;;30.60;;
2750;SDS011;1383;48.362;10.908;2022-08-19T07:52:34;38.37;;;29.27;;
2750;SDS011;1383;48.362;10.908;2022-08-19T07:55:02;37.30;;;30.83;;
2750;SDS011;1383;48.362;10.908;2022-08-19T07:57:30;40.00;;;31.77;;
2750;SDS011;1383;48.362;10.908;2022-08-19T07:59:57;39.73;;;32.90;;
2750;SDS011;1383;48.362;10.908;2022-08-19T08:02:24;42.13;;;34.97;;
2750;SDS011;1383;48.362;10.908;2022-08-19T08:04:51;39.33;;;31.73;;
2750;SDS011;1383;48.362;10.908;2022-08-19T08:07:36;41.97;;;32.97;;
2750;SDS011;1383;48.362;10.908;2022-08-19T08:10:22;43.93;;;33.53;;
2750;SDS011;1383;48.362;10.908;2022-08-19T08:12:49;43.20;;;36.30;;
2750;SDS011;1383;48.362;10.908;2022-08-19T08:15:36;42.87;;;33.77;;
2750;SDS011;1383;48.362;10.908;2022-08-19T08:18:08;39.80;;;31.37;;
2750;SDS011;1383;48.362;10.908;2022-08-19T08:20:36;45.83;;;34.80;;
2750;SDS011;1383;48.362;10.908;2022-08-19T08:23:03;44.00;;;35.60;;
2750;SDS011;1383;48.362;10.908;2022-08-19T08:25:48;46.03;;;34.53;;
2750;SDS011;1383;48.362;10.908;2022-08-19T08:28:16;46.70;;;35.63;;
2750;SDS011;1383;48.362;10.908;2022-08-19T08:30:43;40.03;;;33.90;;
2750;SDS011;1383;48.362;10.908;2022-08-19T08:33:17;44.03;;;35.30;;
2750;SDS011;1383;48.362;10.908;2022-08-19T08:36:06;42.70;;;33.53;;
2750;SDS011;1383;48.362;10.908;2022-08-19T08:38:34;45.70;;;35.43;;
2750;SDS011;1383;48.362;10.908;2022-08-19T08:43:46;42.37;;;34.63;;
2750;SDS011;1383;48.362;10.908;2022-08-19T08:51:48;44.07;;;34.63;;
2750;SDS011;1383;48.362;10.908;2022-08-19T08:54:25;42.50;;;34.13;;
2750;SDS011;1383;48.362;10.908;2022-08-19T08:57:04;43.93;;;34.13;;
2750;SDS011;1383;48.362;10.908;2022-08-19T08:59:39;40.30;;;32.50;;
2750;SDS011;1383;48.362;10.908;2022-08-19T09:02:07;43.00;;;33.77;;
2750;SDS011;1383;48.362;10.908;2022-08-19T09:04:37;41.47;;;34.67;;
2750;SDS011;1383;48.362;10.908;2022-08-19T09:08:07;43.63;;;34.33;;
2750;SDS011;1383;48.362;10.908;2022-08-19T09:10:29;44.40;;;36.90;;
2750;SDS011;1383;48.362;10.908;2022-08-19T09:15:48;48.87;;;39.03;;
2750;SDS011;1383;48.362;10.908;2022-08-19T09:18:20;47.53;;;36.00;;
2750;SDS011;1383;48.362;10.908;2022-08-19T09:20:47;44.53;;;35.10;;
2750;SDS011;1383;48.362;10.908;2022-08-19T09:23:14;46.03;;;37.80;;
2750;SDS011;1383;48.362;10.908;2022-08-19T09:25:42;50.63;;;38.10;;
2750;SDS011;1383;48.362;10.908;2022-08-19T09:28:09;48.10;;;37.67;;
2750;SDS011;1383;48.362;10.908;2022-08-19T09:30:48;48.73;;;37.57;;
2750;SDS011;1383;48.362;10.908;2022-08-19T09:33:18;51.40;;;37.27;;
2750;SDS011;1383;48.362;10.908;2022-08-19T09:35:46;43.77;;;35.23;;
2750;SDS011;1383;48.362;10.908;2022-08-19T09:38:19;57.03;;;41.50;;
2750;SDS011;1383;48.362;10.908;2022-08-19T09:40:48;51.33;;;39.70;;
2750;SDS011;1383;48.362;10.908;2022-08-19T09:43:16;45.63;;;37.10;;
2750;SDS011;1383;48.362;10.908;2022-08-19T09:46:03;51.40;;;39.30;;
2750;SDS011;1383;48.362;10.908;2022-08-19T09:48:35;45.33;;;37.13;;
2750;SDS011;1383;48.362;10.908;2022-08-19T09:51:07;52.00;;;38.20;;
2750;SDS011;1383;48.362;10.908;2022-08-19T09:53:42;53.47;;;36.90;;
2750;SDS011;1383;48.362;10.908;2022-08-19T09:56:10;50.67;;;37.40;;
2750;SDS011;1383;48.362;10.908;2022-08-19T09:58:39;48.07;;;36.33;;
2750;SDS011;1383;48.362;10.908;2022-08-19T10:01:07;41.10;;;35.23;;
2750;SDS011;1383;48.362;10.908;2022-08-19T10:03:34;45.33;;;34.63;;
2750;SDS011;1383;48.362;10.908;2022-08-19T10:06:03;42.70;;;34.90;;
2750;SDS011;1383;48.362;10.908;2022-08-19T10:08:42;44.20;;;36.13;;
2750;SDS011;1383;48.362;10.908;2022-08-19T10:11:15;46.93;;;36.20;;
2750;SDS011;1383;48.362;10.908;2022-08-19T10:13:54;41.60;;;34.30;;
2750;SDS011;1383;48.362;10.908;2022-08-19T10:16:21;42.97;;;35.53;;
2750;SDS011;1383;48.362;10.908;2022-08-19T10:18:55;51.47;;;35.10;;
2750;SDS011;1383;48.362;10.908;2022-08-19T10:21:25;42.63;;;33.07;;
2750;SDS011;1383;48.362;10.908;2022-08-19T10:23:58;42.10;;;35.27;;
2750;SDS011;1383;48.362;10.908;2022-08-19T10:26:29;43.97;;;35.43;;
2750;SDS011;1383;48.362;10.908;2022-08-19T10:28:57;41.97;;;35.07;;
2750;SDS011;1383;48.362;10.908;2022-08-19T10:31:25;46.30;;;37.60;;
2750;SDS011;1383;48.362;10.908;2022-08-19T10:34:14;45.20;;;34.83;;
2750;SDS011;1383;48.362;10.908;2022-08-19T10:36:53;45.77;;;37.60;;
2750;SDS011;1383;48.362;10.908;2022-08-19T10:39:27;47.03;;;35.77;;
2750;SDS011;1383;48.362;10.908;2022-08-19T10:41:56;44.50;;;34.47;;
2750;SDS011;1383;48.362;10.908;2022-08-19T10:44:23;52.67;;;37.37;;
2750;SDS011;1383;48.362;10.908;2022-08-19T10:46:57;45.87;;;36.57;;
2750;SDS011;1383;48.362;10.908;2022-08-19T10:49:25;53.17;;;39.37;;
2750;SDS011;1383;48.362;10.908;2022-08-19T10:51:53;45.00;;;34.60;;
2750;SDS011;1383;48.362;10.908;2022-08-19T10:54:45;44.20;;;34.90;;
2750;SDS011;1383;48.362;10.908;2022-08-19T10:57:34;48.73;;;37.43;;
2750;SDS011;1383;48.362;10.908;2022-08-19T11:00:21;48.97;;;34.93;;
2750;SDS011;1383;48.362;10.908;2022-08-19T11:02:49;50.97;;;36.23;;
2750;SDS011;1383;48.362;10.908;2022-08-19T11:05:16;45.70;;;36.10;;
2750;SDS011;1383;48.362;10.908;2022-08-19T11:07:44;43.60;;;31.57;;
2750;SDS011;1383;48.362;10.908;2022-08-19T11:10:13;43.17;;;32.73;;
2750;SDS011;1383;48.362;10.908;2022-08-19T11:12:46;37.57;;;29.27;;
2750;SDS011;1383;48.362;10.908;2022-08-19T11:15:13;30.87;;;23.77;;
2750;SDS011;1383;48.362;10.908;2022-08-19T11:17:40;24.80;;;20.33;;
2750;SDS011;1383;48.362;10.908;2022-08-19T11:20:11;21.67;;;18.33;;
2750;SDS011;1383;48.362;10.908;2022-08-19T11:22:39;25.53;;;18.70;;
2750;SDS011;1383;48.362;10.908;2022-08-19T11:25:08;26.33;;;19.97;;
2750;SDS011;1383;48.362;10.908;2022-08-19T11:27:37;21.60;;;18.60;;
2750;SDS011;1383;48.362;10.908;2022-08-19T11:30:09;23.33;;;18.83;;
2750;SDS011;1383;48.362;10.908;2022-08-19T11:32:38;26.70;;;20.83;;
2750;SDS011;1383;48.362;10.908;2022-08-19T11:35:13;24.87;;;20.13;;
2750;SDS011;1383;48.362;10.908;2022-08-19T11:37:41;20.53;;;17.70;;
2750;SDS011;1383;48.362;10.908;2022-08-19T11:40:08;26.60;;;17.47;;
2750;SDS011;1383;48.362;10.908;2022-08-19T11:42:35;19.53;;;15.57;;
2750;SDS011;1383;48.362;10.908;2022-08-19T11:45:21;19.23;;;15.20;;
2750;SDS011;1383;48.362;10.908;2022-08-19T11:47:53;17.33;;;14.90;;
2750;SDS011;1383;48.362;10.908;2022-08-19T11:50:20;13.93;;;12.00;;
2750;SDS011;1383;48.362;10.908;2022-08-19T11:52:49;11.50;;;10.17;;
2750;SDS011;1383;48.362;10.908;2022-08-19T11:55:20;10.83;;;9.10;;
2750;SDS011;1383;48.362;10.908;2022-08-19T11:57:47;8.77;;;7.87;;
2750;SDS011;1383;48.362;10.908;2022-08-19T12:00:14;9.83;;;8.83;;
2750;SDS011;1383;48.362;10.908;2022-08-19T12:02:41;10.30;;;9.30;;
2750;SDS011;1383;48.362;10.908;2022-08-19T12:05:08;11.73;;;10.40;;
2750;SDS011;1383;48.362;10.908;2022-08-19T12:07:38;16.07;;;11.90;;
2750;SDS011;1383;48.362;10.908;2022-08-19T12:10:07;16.60;;;14.03;;
2750;SDS011;1383;48.362;10.908;2022-08-19T12:12:35;19.20;;;15.20;;
2750;SDS011;1383;48.362;10.908;2022-08-19T12:15:09;19.87;;;16.10;;
2750;SDS011;1383;48.362;10.908;2022-08-19T12:17:38;16.73;;;15.10;;
2750;SDS011;1383;48.362;10.908;2022-08-19T12:20:04;16.50;;;14.90;;
2750;SDS011;1383;48.362;10.908;2022-08-19T12:22:33;16.43;;;14.73;;
2750;SDS011;1383;48.362;10.908;2022-08-19T12:25:01;16.20;;;14.50;;
2750;SDS011;1383;48.362;10.908;2022-08-19T12:27:27;17.23;;;13.87;;
2750;SDS011;1383;48.362;10.908;2022-08-19T12:30:08;15.60;;;13.93;;
2750;SDS011;1383;48.362;10.908;2022-08-19T12:32:37;15.10;;;13.57;;
2750;SDS011;1383;48.362;10.908;2022-08-19T12:35:05;14.33;;;12.17;;
2750;SDS011;1383;48.362;10.908;2022-08-19T12:37:34;13.13;;;10.37;;
2750;SDS011;1383;48.362;10.908;2022-08-19T12:40:01;13.57;;;12.20;;
2750;SDS011;1383;48.362;10.908;2022-08-19T12:42:29;10.97;;;9.87;;
2750;SDS011;1383;48.362;10.908;2022-08-19T12:44:56;11.17;;;9.97;;
2750;SDS011;1383;48.362;10.908;2022-08-19T12:47:23;9.67;;;8.67;;
2750;SDS011;1383;48.362;10.908;2022-08-19T12:49:52;10.30;;;9.30;;
2750;SDS011;1383;48.362;10.908;2022-08-19T12:52:22;9.73;;;8.73;;
2750;SDS011;1383;48.362;10.908;2022-08-19T12:54:51;8.00;;;7.17;;
2750;SDS011;1383;48.362;10.908;2022-08-19T12:57:20;8.40;;;7.60;;
2750;SDS011;1383;48.362;10.908;2022-08-19T12:59:57;9.43;;;8.40;;
2750;SDS011;1383;48.362;10.908;2022-08-19T13:02:24;9.83;;;8.87;;
2750;SDS011;1383;48.362;10.908;2022-08-19T13:04:52;11.20;;;9.23;;
2750;SDS011;1383;48.362;10.908;2022-08-19T13:07:19;9.70;;;8.80;;
2750;SDS011;1383;48.362;10.908;2022-08-19T13:09:47;7.97;;;7.17;;
2750;SDS011;1383;48.362;10.908;2022-08-19T13:12:13;9.83;;;8.93;;
2750;SDS011;1383;48.362;10.908;2022-08-19T13:14:40;10.17;;;9.03;;
2750;SDS011;1383;48.362;10.908;2022-08-19T13:17:07;9.77;;;8.77;;
2750;SDS011;1383;48.362;10.908;2022-08-19T13:19:36;10.30;;;9.40;;
2750;SDS011;1383;48.362;10.908;2022-08-19T13:22:03;10.40;;;9.30;;
2750;SDS011;1383;48.362;10.908;2022-08-19T13:24:40;10.20;;;9.23;;
2750;SDS011;1383;48.362;10.908;2022-08-19T13:27:12;8.83;;;7.80;;
2750;SDS011;1383;48.362;10.908;2022-08-19T13:29:40;9.97;;;8.97;;
2750;SDS011;1383;48.362;10.908;2022-08-19T13:32:26;10.03;;;9.13;;
2750;SDS011;1383;48.362;10.908;2022-08-19T13:35:14;9.67;;;8.77;;
2750;SDS011;1383;48.362;10.908;2022-08-19T13:37:42;10.90;;;9.80;;
2750;SDS011;1383;48.362;10.908;2022-08-19T13:40:14;11.30;;;10.03;;
2750;SDS011;1383;48.362;10.908;2022-08-19T13:42:45;12.17;;;10.97;;
2750;SDS011;1383;48.362;10.908;2022-08-19T13:45:15;10.63;;;9.53;;
2750;SDS011;1383;48.362;10.908;2022-08-19T13:47:51;12.30;;;11.10;;
2750;SDS011;1383;48.362;10.908;2022-08-19T13:50:25;11.77;;;10.67;;
2750;SDS011;1383;48.362;10.908;2022-08-19T13:52:54;12.60;;;11.27;;
2750;SDS011;1383;48.362;10.908;2022-08-19T13:55:22;11.50;;;10.40;;
2750;SDS011;1383;48.362;10.908;2022-08-19T13:57:53;12.87;;;11.63;;
2750;SDS011;1383;48.362;10.908;2022-08-19T14:00:22;13.93;;;12.53;;
2750;SDS011;1383;48.362;10.908;2022-08-19T14:02:53;14.60;;;13.13;;
2750;SDS011;1383;48.362;10.908;2022-08-19T14:05:22;14.77;;;13.27;;
2750;SDS011;1383;48.362;10.908;2022-08-19T14:07:50;14.90;;;13.33;;
2750;SDS011;1383;48.362;10.908;2022-08-19T14:10:17;17.13;;;15.43;;
2750;SDS011;1383;48.362;10.908;2022-08-19T14:12:45;17.87;;;16.17;;
2750;SDS011;1383;48.362;10.908;2022-08-19T14:15:12;16.93;;;15.33;;
2750;SDS011;1383;48.362;10.908;2022-08-19T14:17:41;18.70;;;16.80;;
2750;SDS011;1383;48.362;10.908;2022-08-19T14:20:10;19.97;;;18.07;;
2750;SDS011;1383;48.362;10.908;2022-08-19T14:22:43;19.57;;;17.57;;
2750;SDS011;1383;48.362;10.908;2022-08-19T14:25:13;17.83;;;15.97;;
2750;SDS011;1383;48.362;10.908;2022-08-19T14:27:43;21.03;;;18.83;;
2750;SDS011;1383;48.362;10.908;2022-08-19T14:30:11;19.40;;;17.33;;
2750;SDS011;1383;48.362;10.908;2022-08-19T14:32:40;16.87;;;15.27;;
2750;SDS011;1383;48.362;10.908;2022-08-19T14:35:09;20.00;;;18.00;;
2750;SDS011;1383;48.362;10.908;2022-08-19T14:37:38;18.63;;;16.67;;
2750;SDS011;1383;48.362;10.908;2022-08-19T14:40:12;18.07;;;16.13;;
2750;SDS011;1383;48.362;10.908;2022-08-19T14:42:40;19.07;;;17.10;;
2750;SDS011;1383;48.362;10.908;2022-08-19T14:45:08;19.10;;;17.10;;
2750;SDS011;1383;48.362;10.908;2022-08-19T14:47:36;19.47;;;17.67;;
2750;SDS011;1383;48.362;10.908;2022-08-19T14:50:09;17.87;;;16.07;;
2750;SDS011;1383;48.362;10.908;2022-08-19T14:52:44;18.77;;;16.93;;
2750;SDS011;1383;48.362;10.908;2022-08-19T14:55:12;19.27;;;17.30;;
2750;SDS011;1383;48.362;10.908;2022-08-19T14:57:40;16.13;;;14.50;;
2750;SDS011;1383;48.362;10.908;2022-08-19T15:00:08;17.97;;;16.30;;
2750;SDS011;1383;48.362;10.908;2022-08-19T15:02:40;18.60;;;16.70;;
2750;SDS011;1383;48.362;10.908;2022-08-19T15:05:07;20.40;;;16.60;;
2750;SDS011;1383;48.362;10.908;2022-08-19T15:07:34;19.13;;;16.07;;
2750;SDS011;1383;48.362;10.908;2022-08-19T15:10:01;25.07;;;22.37;;
2750;SDS011;1383;48.362;10.908;2022-08-19T15:12:29;16.50;;;14.80;;
2750;SDS011;1383;48.362;10.908;2022-08-19T15:14:56;17.60;;;15.87;;